Time;durP1;ratioP1;P1;durP2;ratioP2;P2;SDS_P1;SDS_P2;PMS_P1;PMS_P2;Temp;Humidity;BMP_temperature;BMP_pressure;BME280_temperature;BME280_humidity;BME280_pressure;Samples;Min_cycle;Max_cycle;Signal;HPM_P1;HPM_P2
2022/05/09 00:02:08;;;;;;;58.83;3.00;;;;;;;;;;5071803;28;20435;-74
2022/05/09 00:04:36;;;;;;;59.00;2.97;;;;;;;;;;5071299;28;20447;-74
2022/05/09 00:07:05;;;;;;;59.40;3.50;;;;;;;;;;5071173;28;20808;-73
2022/05/09 00:09:33;;;;;;;59.70;3.30;;;;;;;;;;5070825;28;20469;-74
2022/05/09 00:12:00;;;;;;;60.27;3.77;;;;;;;;;;5067122;28;20566;-74
2022/05/09 00:14:28;;;;;;;59.03;3.50;;;;;;;;;;5070972;28;20455;-74
2022/05/09 00:16:55;;;;;;;59.17;3.30;;;;;;;;;;5071279;28;20873;-73
2022/05/09 00:19:22;;;;;;;60.17;4.50;;;;;;;;;;5070370;28;20542;-73
2022/05/09 00:21:50;;;;;;;62.00;3.80;;;;;;;;;;5071217;28;20450;-74
2022/05/09 00:24:19;;;;;;;59.40;3.10;;;;;;;;;;5071716;28;20451;-74
2022/05/09 00:26:46;;;;;;;60.27;3.63;;;;;;;;;;5074642;28;21127;-73
2022/05/09 00:29:14;;;;;;;59.27;3.10;;;;;;;;;;5074131;28;20534;-74
2022/05/09 00:31:43;;;;;;;59.40;3.30;;;;;;;;;;5074554;28;20483;-73
2022/05/09 00:34:10;;;;;;;59.07;3.00;;;;;;;;;;5074529;28;20456;-74
2022/05/09 00:36:37;;;;;;;60.40;3.70;;;;;;;;;;5074651;28;20450;-74
2022/05/09 00:39:05;;;;;;;60.23;3.67;;;;;;;;;;5073664;28;20488;-73
2022/05/09 00:41:37;;;;;;;59.20;3.30;;;;;;;;;;5074337;28;20545;-74
2022/05/09 00:44:05;;;;;;;58.70;2.83;;;;;;;;;;5068305;28;20952;-73
2022/05/09 00:46:33;;;;;;;61.27;3.63;;;;;;;;;;5054528;28;20444;-74
2022/05/09 00:49:03;;;;;;;59.07;2.90;;;;;;;;;;5053660;28;20459;-73
2022/05/09 00:51:30;;;;;;;58.97;2.90;;;;;;;;;;5054438;28;20455;-74
2022/05/09 00:54:01;;;;;;;58.83;2.90;;;;;;;;;;5054029;28;20955;-73
2022/05/09 00:56:31;;;;;;;59.53;3.33;;;;;;;;;;5054213;28;20439;-73
2022/05/09 00:59:03;;;;;;;59.03;3.33;;;;;;;;;;5053640;28;20540;-74
2022/05/09 01:01:31;;;;;;;60.07;4.43;;;;;;;;;;5054228;28;20527;-74
2022/05/09 01:04:02;;;;;;;60.17;4.77;;;;;;;;;;5054104;28;20538;-74
2022/05/09 01:06:30;;;;;;;60.47;3.40;;;;;;;;;;5053868;28;20455;-73
2022/05/09 01:08:57;;;;;;;59.47;3.37;;;;;;;;;;5053242;28;20448;-74
2022/05/09 01:11:26;;;;;;;59.13;3.00;;;;;;;;;;5053721;28;21039;-73
2022/05/09 01:13:55;;;;;;;58.73;2.67;;;;;;;;;;5053757;28;20480;-74
2022/05/09 01:16:23;;;;;;;59.17;3.50;;;;;;;;;;5050030;28;20878;-73
2022/05/09 01:18:52;;;;;;;59.30;3.60;;;;;;;;;;5052940;28;20539;-74
2022/05/09 01:21:35;;;;;;;59.50;3.47;;;;;;;;;;5053561;28;20995;-74
2022/05/09 01:24:02;;;;;;;58.83;2.90;;;;;;;;;;5053779;28;20539;-73
2022/05/09 01:26:29;;;;;;;59.67;4.33;;;;;;;;;;5053647;28;20542;-74
2022/05/09 01:29:00;;;;;;;59.20;3.50;;;;;;;;;;5052987;28;20546;-74
2022/05/09 01:31:28;;;;;;;59.00;3.00;;;;;;;;;;5053278;28;20566;-73
2022/05/09 01:33:56;;;;;;;59.10;3.00;;;;;;;;;;5053308;28;20570;-73
2022/05/09 01:36:27;;;;;;;59.10;2.87;;;;;;;;;;5052618;28;20533;-74
2022/05/09 01:38:58;;;;;;;59.07;3.10;;;;;;;;;;5052843;28;20463;-74
2022/05/09 01:41:25;;;;;;;59.30;3.40;;;;;;;;;;5049359;28;20550;-73
2022/05/09 01:43:55;;;;;;;58.97;3.03;;;;;;;;;;5053246;28;20455;-73
2022/05/09 01:46:23;;;;;;;59.80;3.90;;;;;;;;;;5052749;28;20550;-74
2022/05/09 01:51:35;;;;;;;58.97;3.23;;;;;;;;;;5073174;28;20431;-74
2022/05/09 01:54:04;;;;;;;58.87;3.00;;;;;;;;;;5073170;28;20487;-74
2022/05/09 01:56:33;;;;;;;59.17;3.10;;;;;;;;;;5073003;28;20451;-74
2022/05/09 01:59:00;;;;;;;58.80;3.00;;;;;;;;;;5072398;28;20483;-74
2022/05/09 02:01:28;;;;;;;58.97;3.10;;;;;;;;;;5072764;28;20585;-73
2022/05/09 02:03:56;;;;;;;59.10;2.90;;;;;;;;;;5073050;28;20439;-74
2022/05/09 02:06:24;;;;;;;58.93;3.00;;;;;;;;;;5072829;28;20455;-73
2022/05/09 02:08:51;;;;;;;60.00;3.27;;;;;;;;;;5072015;28;20983;-73
2022/05/09 02:11:20;;;;;;;58.77;2.90;;;;;;;;;;5072541;28;20474;-74
2022/05/09 02:13:47;;;;;;;59.10;2.80;;;;;;;;;;5072421;28;20566;-74
2022/05/09 02:16:14;;;;;;;59.57;3.33;;;;;;;;;;5072834;28;20457;-73
2022/05/09 02:18:41;;;;;;;59.17;3.07;;;;;;;;;;5071129;28;20447;-73
2022/05/09 02:21:09;;;;;;;63.50;4.43;;;;;;;;;;5069406;28;20470;-74
2022/05/09 02:23:36;;;;;;;58.97;3.30;;;;;;;;;;5072408;28;20450;-73
2022/05/09 02:26:04;;;;;;;58.83;2.83;;;;;;;;;;5072305;28;20478;-74
2022/05/09 02:28:32;;;;;;;59.03;3.00;;;;;;;;;;5071638;28;20537;-74
2022/05/09 02:31:00;;;;;;;58.83;2.73;;;;;;;;;;5072457;28;20474;-74
2022/05/09 02:33:27;;;;;;;59.30;3.20;;;;;;;;;;5072335;28;20492;-73
2022/05/09 02:35:54;;;;;;;59.10;2.90;;;;;;;;;;5072180;28;20453;-74
2022/05/09 02:38:24;;;;;;;58.87;3.00;;;;;;;;;;5071421;28;20561;-74
2022/05/09 02:40:51;;;;;;;59.03;2.90;;;;;;;;;;5071929;28;20478;-74
2022/05/09 02:43:18;;;;;;;59.27;3.23;;;;;;;;;;5072327;28;20533;-74
2022/05/09 02:45:47;;;;;;;58.93;2.90;;;;;;;;;;5072348;28;20538;-74
2022/05/09 02:48:14;;;;;;;59.17;3.40;;;;;;;;;;5071301;28;20473;-74
2022/05/09 02:50:41;;;;;;;59.17;2.93;;;;;;;;;;5070780;28;21006;-74
2022/05/09 02:53:10;;;;;;;58.93;2.80;;;;;;;;;;5058550;28;21075;-74
2022/05/09 02:55:37;;;;;;;59.90;3.10;;;;;;;;;;5051782;28;20458;-74
2022/05/09 02:58:05;;;;;;;59.07;2.80;;;;;;;;;;5051279;28;20952;-74
2022/05/09 03:00:32;;;;;;;59.03;3.00;;;;;;;;;;5051980;28;20832;-74
2022/05/09 03:05:46;;;;;;;60.10;3.50;;;;;;;;;;5051874;28;20429;-74
2022/05/09 03:08:15;;;;;;;58.87;3.00;;;;;;;;;;5051068;28;20463;-74
2022/05/09 03:10:42;;;;;;;58.87;2.93;;;;;;;;;;5051947;28;20474;-74
2022/05/09 03:13:10;;;;;;;58.87;2.90;;;;;;;;;;5051520;28;20572;-74
2022/05/09 03:15:38;;;;;;;59.17;4.20;;;;;;;;;;5051631;28;21007;-73
2022/05/09 03:18:07;;;;;;;59.17;3.30;;;;;;;;;;5051113;28;20477;-74
2022/05/09 03:20:34;;;;;;;58.90;3.00;;;;;;;;;;5051462;28;20476;-74
2022/05/09 03:23:02;;;;;;;59.23;2.90;;;;;;;;;;5050788;28;20454;-74
2022/05/09 03:25:30;;;;;;;61.90;4.60;;;;;;;;;;5050694;28;20951;-74
2022/05/09 03:27:57;;;;;;;59.30;3.20;;;;;;;;;;5051099;28;20558;-73
2022/05/09 03:30:24;;;;;;;59.27;3.07;;;;;;;;;;5051493;28;20870;-74
2022/05/09 03:32:52;;;;;;;58.97;3.10;;;;;;;;;;5051361;28;20576;-74
2022/05/09 03:35:21;;;;;;;60.23;3.40;;;;;;;;;;5051687;28;20450;-74
2022/05/09 03:37:48;;;;;;;59.67;3.20;;;;;;;;;;5051059;28;20512;-74
2022/05/09 03:40:18;;;;;;;59.10;2.93;;;;;;;;;;5051639;28;20837;-74
2022/05/09 03:42:45;;;;;;;59.37;3.20;;;;;;;;;;5051378;28;20466;-74
2022/05/09 03:45:13;;;;;;;58.93;2.83;;;;;;;;;;5051474;28;20447;-74
2022/05/09 03:47:40;;;;;;;58.97;2.93;;;;;;;;;;5050728;28;20958;-74
2022/05/09 03:50:08;;;;;;;59.40;3.10;;;;;;;;;;5051327;28;20471;-73
2022/05/09 03:52:37;;;;;;;59.10;3.20;;;;;;;;;;5051455;28;20446;-74
2022/05/09 03:55:05;;;;;;;59.10;3.30;;;;;;;;;;5051355;28;20451;-74
2022/05/09 03:57:32;;;;;;;59.03;3.00;;;;;;;;;;5050693;28;20451;-74
2022/05/09 04:00:02;;;;;;;58.87;2.80;;;;;;;;;;5053239;28;20463;-74
2022/05/09 04:02:30;;;;;;;59.03;3.30;;;;;;;;;;5055332;28;20454;-74
2022/05/09 04:04:57;;;;;;;59.03;3.10;;;;;;;;;;5055430;28;20485;-74
2022/05/09 04:07:24;;;;;;;58.80;2.87;;;;;;;;;;5054599;28;20508;-74
2022/05/09 04:09:53;;;;;;;58.67;2.93;;;;;;;;;;5055166;28;20840;-74
2022/05/09 04:12:20;;;;;;;59.00;2.90;;;;;;;;;;5055067;28;20505;-73
2022/05/09 04:17:32;;;;;;;58.90;3.00;;;;;;;;;;5054411;28;20481;-74
2022/05/09 04:19:59;;;;;;;58.63;2.60;;;;;;;;;;5054867;28;20479;-74
2022/05/09 04:22:26;;;;;;;58.97;3.33;;;;;;;;;;5054865;28;20459;-74
2022/05/09 04:24:55;;;;;;;59.00;2.90;;;;;;;;;;5054775;28;20455;-74
2022/05/09 04:27:22;;;;;;;58.83;2.90;;;;;;;;;;5054293;28;20481;-73
2022/05/09 04:29:49;;;;;;;58.67;2.77;;;;;;;;;;5054763;28;20466;-74
2022/05/09 04:32:17;;;;;;;58.87;3.00;;;;;;;;;;5054868;28;20454;-73
2022/05/09 04:34:44;;;;;;;59.00;2.70;;;;;;;;;;5054699;28;20487;-74
2022/05/09 04:37:11;;;;;;;62.10;4.63;;;;;;;;;;5053938;28;20558;-74
2022/05/09 04:39:38;;;;;;;59.37;3.97;;;;;;;;;;5054385;28;20783;-73
2022/05/09 04:42:08;;;;;;;58.77;2.60;;;;;;;;;;5054425;28;20455;-73
2022/05/09 04:44:35;;;;;;;58.73;2.60;;;;;;;;;;5054403;28;20500;-73
2022/05/09 04:47:02;;;;;;;60.90;4.27;;;;;;;;;;5054229;28;20531;-74
2022/05/09 04:49:29;;;;;;;58.93;2.90;;;;;;;;;;5053912;28;20842;-74
2022/05/09 04:51:56;;;;;;;58.87;2.70;;;;;;;;;;5054337;28;20443;-73
2022/05/09 04:54:24;;;;;;;59.10;3.00;;;;;;;;;;5054400;28;20525;-74
2022/05/09 04:56:51;;;;;;;59.60;3.20;;;;;;;;;;5054419;28;20447;-73
2022/05/09 04:59:19;;;;;;;59.23;4.00;;;;;;;;;;5053388;28;20462;-74
2022/05/09 05:01:46;;;;;;;58.73;2.90;;;;;;;;;;5053822;28;20546;-73
2022/05/09 05:04:16;;;;;;;58.57;2.70;;;;;;;;;;5053577;28;20449;-74
2022/05/09 05:06:43;;;;;;;60.67;3.20;;;;;;;;;;5053183;28;21002;-74
2022/05/09 05:09:10;;;;;;;58.67;2.83;;;;;;;;;;5052966;28;20534;-73
2022/05/09 05:11:37;;;;;;;58.97;3.30;;;;;;;;;;5053782;28;20546;-73
2022/05/09 05:14:04;;;;;;;58.53;2.90;;;;;;;;;;5053783;28;20487;-73
2022/05/09 05:19:26;;;;;;;59.70;3.20;;;;;;;;;;5027940;28;20490;-74
2022/05/09 05:21:53;;;;;;;59.00;2.97;;;;;;;;;;5053701;28;20956;-74
2022/05/09 05:24:20;;;;;;;58.87;2.90;;;;;;;;;;5053865;28;20452;-74
2022/05/09 05:26:47;;;;;;;59.10;3.30;;;;;;;;;;5052949;28;20464;-73
2022/05/09 05:29:15;;;;;;;59.57;3.50;;;;;;;;;;5052840;28;20543;-74
2022/05/09 05:31:44;;;;;;;58.67;2.67;;;;;;;;;;5053193;28;20470;-74
2022/05/09 05:34:11;;;;;;;59.07;3.03;;;;;;;;;;5053210;28;20483;-74
2022/05/09 05:36:38;;;;;;;59.07;3.10;;;;;;;;;;5053409;28;20458;-74
2022/05/09 05:39:07;;;;;;;58.80;2.87;;;;;;;;;;5052583;28;21072;-73
2022/05/09 05:41:34;;;;;;;58.47;2.87;;;;;;;;;;5053433;28;20815;-74
2022/05/09 05:44:01;;;;;;;59.50;3.30;;;;;;;;;;5053307;28;20446;-74
2022/05/09 05:46:29;;;;;;;59.40;3.50;;;;;;;;;;5053333;28;20448;-74
2022/05/09 05:48:57;;;;;;;59.30;3.87;;;;;;;;;;5052708;28;20535;-74
2022/05/09 05:51:24;;;;;;;58.77;2.97;;;;;;;;;;5053338;28;20578;-74
2022/05/09 05:53:51;;;;;;;58.87;2.90;;;;;;;;;;5053114;28;20566;-74
2022/05/09 05:56:18;;;;;;;60.63;4.20;;;;;;;;;;5053208;28;20480;-73
2022/05/09 05:58:46;;;;;;;59.47;3.53;;;;;;;;;;5052213;28;21016;-74
2022/05/09 06:01:13;;;;;;;59.17;3.43;;;;;;;;;;5053003;28;20988;-74
2022/05/09 06:03:40;;;;;;;58.67;2.97;;;;;;;;;;5053080;28;20444;-73
2022/05/09 06:06:08;;;;;;;59.10;3.60;;;;;;;;;;5053159;28;20563;-74
2022/05/09 06:08:38;;;;;;;58.70;3.00;;;;;;;;;;5052229;28;20451;-74
2022/05/09 06:11:06;;;;;;;58.80;3.17;;;;;;;;;;5052753;28;20863;-74
2022/05/09 06:13:33;;;;;;;63.37;3.50;;;;;;;;;;5052662;28;20844;-74
2022/05/09 06:16:00;;;;;;;60.17;4.33;;;;;;;;;;5052960;28;20551;-74
2022/05/09 06:18:27;;;;;;;59.60;3.03;;;;;;;;;;5052229;28;20452;-73
2022/05/09 06:20:54;;;;;;;59.90;3.97;;;;;;;;;;5052714;28;20543;-74
2022/05/09 06:23:23;;;;;;;59.00;3.30;;;;;;;;;;5051945;28;21011;-74
2022/05/09 06:25:50;;;;;;;59.40;3.63;;;;;;;;;;5052464;28;20815;-74
2022/05/09 06:28:18;;;;;;;59.17;3.30;;;;;;;;;;5051820;28;20491;-73
2022/05/09 06:30:45;;;;;;;58.87;3.57;;;;;;;;;;5052623;28;20475;-74
2022/05/09 06:33:12;;;;;;;59.90;3.37;;;;;;;;;;5052586;28;20450;-74
2022/05/09 06:35:41;;;;;;;58.87;3.10;;;;;;;;;;5052458;28;20480;-74
2022/05/09 06:38:09;;;;;;;58.97;3.27;;;;;;;;;;5051521;28;20963;-74
2022/05/09 06:40:38;;;;;;;58.87;3.60;;;;;;;;;;5052174;28;20885;-74
2022/05/09 06:43:06;;;;;;;58.63;3.60;;;;;;;;;;5052352;28;20888;-74
2022/05/09 06:45:34;;;;;;;60.70;5.10;;;;;;;;;;5052361;28;20556;-74
2022/05/09 06:48:01;;;;;;;60.07;5.07;;;;;;;;;;5051520;28;20535;-74
2022/05/09 06:50:29;;;;;;;61.43;4.13;;;;;;;;;;5052092;28;20475;-74
2022/05/09 06:52:56;;;;;;;59.37;3.40;;;;;;;;;;5051832;28;20475;-74
2022/05/09 06:55:24;;;;;;;59.10;3.70;;;;;;;;;;5052148;28;20567;-74
2022/05/09 06:57:52;;;;;;;60.13;4.80;;;;;;;;;;5051318;28;20451;-74
2022/05/09 07:00:21;;;;;;;59.00;3.20;;;;;;;;;;5052032;28;20465;-74
2022/05/09 07:02:49;;;;;;;60.90;4.07;;;;;;;;;;5051924;28;20459;-74
2022/05/09 07:05:17;;;;;;;58.97;3.27;;;;;;;;;;5051901;28;20445;-74
2022/05/09 07:07:44;;;;;;;58.80;3.37;;;;;;;;;;5051529;28;20464;-74
2022/05/09 07:10:12;;;;;;;60.10;4.03;;;;;;;;;;5051367;28;21051;-73
2022/05/09 07:12:43;;;;;;;59.60;3.43;;;;;;;;;;5051703;28;20459;-74
2022/05/09 07:15:12;;;;;;;59.57;3.50;;;;;;;;;;5051739;28;20495;-74
2022/05/09 07:17:39;;;;;;;59.17;3.20;;;;;;;;;;5051109;28;20466;-74
2022/05/09 07:20:07;;;;;;;60.53;4.87;;;;;;;;;;5051531;28;20556;-74
2022/05/09 07:22:35;;;;;;;59.40;3.80;;;;;;;;;;5051840;28;20548;-74
2022/05/09 07:25:03;;;;;;;58.77;3.30;;;;;;;;;;5051754;28;20447;-74
2022/05/09 07:27:30;;;;;;;59.77;3.93;;;;;;;;;;5051082;28;20873;-74
2022/05/09 07:29:57;;;;;;;61.23;4.80;;;;;;;;;;5051592;28;20473;-74
2022/05/09 07:32:26;;;;;;;63.70;5.47;;;;;;;;;;5051427;28;20622;-74
2022/05/09 07:34:53;;;;;;;64.60;4.27;;;;;;;;;;5058597;28;20492;-73
2022/05/09 07:37:21;;;;;;;59.70;4.73;;;;;;;;;;5074871;28;20448;-74
2022/05/09 07:39:48;;;;;;;59.87;4.10;;;;;;;;;;5075299;28;20580;-73
2022/05/09 07:42:15;;;;;;;60.10;4.40;;;;;;;;;;5075419;28;20462;-72
2022/05/09 07:44:43;;;;;;;58.97;3.87;;;;;;;;;;5075473;28;20874;-74
2022/05/09 07:47:10;;;;;;;59.20;3.93;;;;;;;;;;5074659;28;20880;-74
2022/05/09 07:49:38;;;;;;;59.37;4.27;;;;;;;;;;5078120;28;20499;-74
2022/05/09 07:52:08;;;;;;;66.20;5.30;;;;;;;;;;5075342;28;20543;-74
2022/05/09 07:54:35;;;;;;;59.60;4.53;;;;;;;;;;5075235;28;20489;-73
2022/05/09 07:57:02;;;;;;;60.00;4.37;;;;;;;;;;5074578;28;20464;-74
2022/05/09 07:59:30;;;;;;;59.13;3.90;;;;;;;;;;5071742;28;20483;-74
2022/05/09 08:01:57;;;;;;;58.80;2.90;;;;;;;;;;5075191;28;20452;-73
2022/05/09 08:04:24;;;;;;;63.50;5.10;;;;;;;;;;5075275;28;20452;-74
2022/05/09 08:06:53;;;;;;;60.70;4.17;;;;;;;;;;5075191;28;20450;-74
2022/05/09 08:09:20;;;;;;;59.10;3.47;;;;;;;;;;5074510;28;20452;-74
2022/05/09 08:11:47;;;;;;;59.60;4.03;;;;;;;;;;5074968;28;20822;-74
2022/05/09 08:14:14;;;;;;;60.53;4.30;;;;;;;;;;5074684;28;20475;-74
2022/05/09 08:16:42;;;;;;;59.47;3.90;;;;;;;;;;5075051;28;20447;-74
2022/05/09 08:19:11;;;;;;;67.30;5.13;;;;;;;;;;5074379;28;20454;-74
2022/05/09 08:21:38;;;;;;;59.20;3.97;;;;;;;;;;5075180;28;20450;-74
2022/05/09 08:24:08;;;;;;;59.67;3.70;;;;;;;;;;5074723;28;20485;-74
2022/05/09 08:26:35;;;;;;;59.53;3.90;;;;;;;;;;5074705;28;20839;-75
2022/05/09 08:29:04;;;;;;;60.17;4.67;;;;;;;;;;5074241;28;20458;-75
2022/05/09 08:31:31;;;;;;;61.47;5.87;;;;;;;;;;5071235;28;20454;-74
2022/05/09 08:33:59;;;;;;;59.40;4.50;;;;;;;;;;5074633;28;20454;-75
2022/05/09 08:39:09;;;;;;;59.70;4.40;;;;;;;;;;5071568;28;20803;-75
2022/05/09 08:41:37;;;;;;;68.10;5.03;;;;;;;;;;5074421;28;20963;-75
2022/05/09 08:44:12;;;;;;;59.53;4.10;;;;;;;;;;5074318;28;20457;-74
2022/05/09 08:46:43;;;;;;;60.67;4.50;;;;;;;;;;5074113;28;20804;-74
2022/05/09 08:49:18;;;;;;;59.93;4.40;;;;;;;;;;5073500;28;20870;-74
2022/05/09 08:51:49;;;;;;;65.27;4.73;;;;;;;;;;5073982;28;20439;-75
2022/05/09 08:54:20;;;;;;;60.30;4.97;;;;;;;;;;5074430;28;20498;-72
2022/05/09 08:56:48;;;;;;;61.00;4.43;;;;;;;;;;5074627;28;20539;-75
2022/05/09 08:59:26;;;;;;;61.07;5.17;;;;;;;;;;5073520;28;20867;-74
2022/05/09 09:01:55;;;;;;;60.37;4.97;;;;;;;;;;5074163;28;20451;-74
2022/05/09 09:04:23;;;;;;;58.90;3.67;;;;;;;;;;5073880;28;20820;-73
2022/05/09 09:07:01;;;;;;;59.97;4.00;;;;;;;;;;5074082;28;20454;-76
2022/05/09 09:09:38;;;;;;;60.10;4.90;;;;;;;;;;5070280;28;20477;-75
2022/05/09 09:12:10;;;;;;;59.97;4.20;;;;;;;;;;5074024;28;20506;-75
2022/05/09 09:14:44;;;;;;;59.90;4.33;;;;;;;;;;5073638;28;20572;-76
2022/05/09 09:17:16;;;;;;;59.07;4.07;;;;;;;;;;5073192;28;20504;-76
2022/05/09 09:19:58;;;;;;;60.43;4.87;;;;;;;;;;5073851;28;20487;-76
2022/05/09 09:22:32;;;;;;;59.60;4.70;;;;;;;;;;5073667;28;20445;-76
2022/05/09 09:25:09;;;;;;;60.03;5.30;;;;;;;;;;5073581;28;20446;-76
2022/05/09 09:27:42;;;;;;;60.80;4.27;;;;;;;;;;5073202;28;20446;-76
2022/05/09 09:30:11;;;;;;;59.57;3.93;;;;;;;;;;5073627;28;20477;-76
2022/05/09 09:32:40;;;;;;;60.50;4.93;;;;;;;;;;5073833;28;20967;-76
2022/05/09 09:35:09;;;;;;;62.07;5.40;;;;;;;;;;5073256;28;20519;-76
2022/05/09 09:37:41;;;;;;;63.07;4.57;;;;;;;;;;5072577;28;20543;-76
2022/05/09 09:40:10;;;;;;;59.20;4.30;;;;;;;;;;5069907;28;20515;-76
2022/05/09 09:42:37;;;;;;;59.70;3.97;;;;;;;;;;5074124;28;20546;-76
2022/05/09 09:45:15;;;;;;;59.77;4.57;;;;;;;;;;5073305;28;20538;-76
2022/05/09 09:47:42;;;;;;;59.00;4.37;;;;;;;;;;5072618;28;20538;-76
2022/05/09 09:50:15;;;;;;;59.67;4.20;;;;;;;;;;5072817;28;20467;-76
2022/05/09 09:52:43;;;;;;;59.90;4.37;;;;;;;;;;5073267;28;20452;-75
2022/05/09 09:55:26;;;;;;;59.37;3.60;;;;;;;;;;5073297;28;20586;-76
2022/05/09 09:57:53;;;;;;;58.97;3.70;;;;;;;;;;5071519;28;20447;-76
2022/05/09 10:00:21;;;;;;;61.30;4.70;;;;;;;;;;5072792;28;20588;-76
2022/05/09 10:02:49;;;;;;;59.03;3.43;;;;;;;;;;5073146;28;20549;-76
2022/05/09 10:05:19;;;;;;;59.53;3.80;;;;;;;;;;5072957;28;20943;-76
2022/05/09 10:07:47;;;;;;;59.37;3.73;;;;;;;;;;5072312;28;20538;-76
2022/05/09 10:10:16;;;;;;;60.27;4.50;;;;;;;;;;5071628;28;20994;-76
2022/05/09 10:12:46;;;;;;;59.90;3.50;;;;;;;;;;5051546;28;20817;-76
2022/05/09 10:15:24;;;;;;;60.23;3.63;;;;;;;;;;5052646;28;20541;-75
2022/05/09 10:17:52;;;;;;;59.03;3.57;;;;;;;;;;5052180;28;20456;-76
2022/05/09 10:20:27;;;;;;;58.80;2.93;;;;;;;;;;5052723;28;20468;-75
2022/05/09 10:25:57;;;;;;;58.90;3.20;;;;;;;;;;5052530;28;20927;-76
2022/05/09 10:28:33;;;;;;;60.30;4.00;;;;;;;;;;5051864;28;20441;-76
2022/05/09 10:31:02;;;;;;;60.00;4.10;;;;;;;;;;5052441;28;21013;-76
2022/05/09 10:33:33;;;;;;;61.33;4.13;;;;;;;;;;5052280;28;20457;-76
2022/05/09 10:36:02;;;;;;;60.93;3.73;;;;;;;;;;5052447;28;20570;-76
2022/05/09 10:38:36;;;;;;;58.93;3.70;;;;;;;;;;5051726;28;20468;-76
2022/05/09 10:41:10;;;;;;;59.17;3.40;;;;;;;;;;5052104;28;20975;-76
2022/05/09 10:43:41;;;;;;;59.97;3.97;;;;;;;;;;5063555;28;20447;-76
2022/05/09 10:46:11;;;;;;;60.03;4.10;;;;;;;;;;5072035;28;20983;-76
2022/05/09 10:48:41;;;;;;;59.17;3.47;;;;;;;;;;5071341;28;20487;-76
2022/05/09 10:51:12;;;;;;;59.70;4.30;;;;;;;;;;5072246;28;20495;-76
2022/05/09 10:53:43;;;;;;;59.30;4.00;;;;;;;;;;5072104;28;20534;-76
2022/05/09 10:56:14;;;;;;;59.10;3.27;;;;;;;;;;5071943;28;20483;-76
2022/05/09 10:58:44;;;;;;;59.40;3.53;;;;;;;;;;5071176;28;20811;-76
2022/05/09 11:01:13;;;;;;;59.77;3.17;;;;;;;;;;5071861;28;20983;-76
2022/05/09 11:03:41;;;;;;;59.07;3.20;;;;;;;;;;5071716;28;20443;-77
2022/05/09 11:06:17;;;;;;;58.50;2.70;;;;;;;;;;5071857;28;20446;-76
2022/05/09 11:08:51;;;;;;;59.43;3.47;;;;;;;;;;5070975;28;20454;-74
2022/05/09 11:11:24;;;;;;;58.60;2.87;;;;;;;;;;5071600;28;20472;-74
2022/05/09 11:13:55;;;;;;;58.80;3.00;;;;;;;;;;5067463;28;20695;-76
2022/05/09 11:16:27;;;;;;;58.67;3.20;;;;;;;;;;5071830;28;20491;-76
2022/05/09 11:19:02;;;;;;;60.03;3.23;;;;;;;;;;5071121;28;20478;-76
2022/05/09 11:21:34;;;;;;;58.67;3.00;;;;;;;;;;5071739;28;20468;-76
2022/05/09 11:24:06;;;;;;;59.10;3.37;;;;;;;;;;5071763;28;20516;-76
2022/05/09 11:26:37;;;;;;;59.63;3.23;;;;;;;;;;5071829;28;20451;-74
2022/05/09 11:29:15;;;;;;;58.47;3.00;;;;;;;;;;5070767;28;20911;-76
2022/05/09 11:31:49;;;;;;;58.97;3.20;;;;;;;;;;5071779;28;20865;-73
2022/05/09 11:34:21;;;;;;;58.17;2.30;;;;;;;;;;5069713;28;20455;-73
2022/05/09 11:36:59;;;;;;;58.87;3.57;;;;;;;;;;5071075;28;20493;-72
2022/05/09 11:39:34;;;;;;;58.77;3.20;;;;;;;;;;5070541;28;20573;-76
2022/05/09 11:45:09;;;;;;;61.40;3.97;;;;;;;;;;5071464;28;20508;-74
2022/05/09 11:47:41;;;;;;;58.50;3.07;;;;;;;;;;5070811;28;20836;-76
2022/05/09 11:50:26;;;;;;;58.67;3.50;;;;;;;;;;5071396;28;20460;-75
2022/05/09 11:52:53;;;;;;;59.00;3.00;;;;;;;;;;5063772;28;20538;-76
2022/05/09 11:55:21;;;;;;;58.50;3.10;;;;;;;;;;5071795;28;20487;-76
2022/05/09 11:57:53;;;;;;;58.57;3.57;;;;;;;;;;5070844;28;20455;-75
2022/05/09 12:00:47;;;;;;;61.47;3.70;;;;;;;;;;5071450;28;20471;-75
2022/05/09 12:03:14;;;;;;;58.50;3.13;;;;;;;;;;5039138;28;20820;-75
2022/05/09 12:05:43;;;;;;;58.70;3.07;;;;;;;;;;5052165;28;20478;-77
2022/05/09 12:08:14;;;;;;;59.37;2.90;;;;;;;;;;5059444;28;20451;-75
2022/05/09 12:10:42;;;;;;;58.80;3.20;;;;;;;;;;5051058;28;20474;-75
2022/05/09 12:13:14;;;;;;;58.97;3.13;;;;;;;;;;5051293;28;20448;-75
2022/05/09 12:15:48;;;;;;;58.57;3.40;;;;;;;;;;5051209;28;20586;-76
2022/05/09 12:18:36;;;;;;;58.60;3.47;;;;;;;;;;5050715;28;20513;-75
2022/05/09 12:21:25;;;;;;;58.73;3.37;;;;;;;;;;5049997;28;21019;-76
2022/05/09 12:24:13;;;;;;;58.30;3.03;;;;;;;;;;5054791;28;20858;-75
2022/05/09 12:26:42;;;;;;;58.33;3.07;;;;;;;;;;5055138;28;20451;-75
2022/05/09 12:29:28;;;;;;;59.93;4.17;;;;;;;;;;5054203;28;20459;-75
2022/05/09 12:31:57;;;;;;;57.90;2.90;;;;;;;;;;5054699;28;20530;-75
2022/05/09 12:34:29;;;;;;;60.40;4.33;;;;;;;;;;5066339;28;20542;-74
2022/05/09 12:36:56;;;;;;;58.67;3.03;;;;;;;;;;5074430;28;20999;-73
2022/05/09 12:39:28;;;;;;;57.97;2.97;;;;;;;;;;5073961;28;20465;-74
2022/05/09 12:41:56;;;;;;;58.30;2.87;;;;;;;;;;5074655;28;20462;-74
2022/05/09 12:44:26;;;;;;;58.57;3.60;;;;;;;;;;5074320;28;20451;-74
2022/05/09 12:46:54;;;;;;;58.87;3.70;;;;;;;;;;5074305;28;20529;-74
2022/05/09 12:49:24;;;;;;;58.03;2.87;;;;;;;;;;5073473;28;20538;-74
2022/05/09 12:51:52;;;;;;;58.67;2.90;;;;;;;;;;5074378;28;21020;-74
2022/05/09 12:54:22;;;;;;;58.00;2.57;;;;;;;;;;5074251;28;20453;-74
2022/05/09 12:56:51;;;;;;;57.90;2.70;;;;;;;;;;5074162;28;20494;-74
2022/05/09 12:59:19;;;;;;;57.80;2.90;;;;;;;;;;5073486;28;20862;-74
2022/05/09 13:01:54;;;;;;;57.97;2.83;;;;;;;;;;5073900;28;20454;-74
2022/05/09 13:04:25;;;;;;;58.27;2.80;;;;;;;;;;5074154;28;20470;-74
2022/05/09 13:06:55;;;;;;;58.13;2.70;;;;;;;;;;5071281;28;20448;-75
2022/05/09 13:09:23;;;;;;;65.33;3.27;;;;;;;;;;5073538;28;20443;-73
2022/05/09 13:11:52;;;;;;;58.87;3.20;;;;;;;;;;5074021;28;20845;-73
2022/05/09 13:14:23;;;;;;;58.90;3.37;;;;;;;;;;5073752;28;20442;-74
2022/05/09 13:16:53;;;;;;;59.00;3.70;;;;;;;;;;5073981;28;20541;-74
2022/05/09 13:19:21;;;;;;;58.67;3.30;;;;;;;;;;5073088;28;20496;-76
2022/05/09 13:21:51;;;;;;;59.20;3.70;;;;;;;;;;5073850;28;20449;-75
2022/05/09 13:24:21;;;;;;;59.47;3.47;;;;;;;;;;5073699;28;20524;-76
2022/05/09 13:26:51;;;;;;;58.37;3.10;;;;;;;;;;5073518;28;20547;-75
2022/05/09 13:29:25;;;;;;;60.40;3.47;;;;;;;;;;5073449;28;20455;-75
2022/05/09 13:31:55;;;;;;;62.00;5.00;;;;;;;;;;5072271;28;20538;-75
2022/05/09 13:34:23;;;;;;;59.60;3.53;;;;;;;;;;5073845;28;20451;-76
2022/05/09 13:36:52;;;;;;;59.17;3.60;;;;;;;;;;5069293;28;20538;-76
2022/05/09 13:39:26;;;;;;;59.60;3.67;;;;;;;;;;5072492;28;20967;-75
2022/05/09 13:41:54;;;;;;;58.80;2.97;;;;;;;;;;5073619;28;20451;-77
2022/05/09 13:44:22;;;;;;;59.90;3.53;;;;;;;;;;5073455;28;20954;-76
2022/05/09 13:46:50;;;;;;;59.47;4.03;;;;;;;;;;5073144;28;20452;-75
2022/05/09 13:49:18;;;;;;;59.60;3.70;;;;;;;;;;5072550;28;20447;-74
2022/05/09 13:51:53;;;;;;;59.60;3.10;;;;;;;;;;5073096;28;20451;-74
2022/05/09 13:54:22;;;;;;;58.80;3.90;;;;;;;;;;5071031;28;20541;-75
2022/05/09 13:56:49;;;;;;;59.27;3.23;;;;;;;;;;5072986;28;20487;-74
2022/05/09 13:59:18;;;;;;;58.37;3.03;;;;;;;;;;5072443;28;20455;-76
2022/05/09 14:01:46;;;;;;;59.10;3.17;;;;;;;;;;5073146;28;20443;-75
2022/05/09 14:04:15;;;;;;;59.07;3.80;;;;;;;;;;5072818;28;20825;-74
2022/05/09 14:06:44;;;;;;;58.80;3.20;;;;;;;;;;5073436;28;20531;-74
2022/05/09 14:09:15;;;;;;;58.67;2.90;;;;;;;;;;5072255;28;20509;-74
2022/05/09 14:11:54;;;;;;;58.33;2.67;;;;;;;;;;5073040;28;20538;-74
2022/05/09 14:14:34;;;;;;;58.77;2.77;;;;;;;;;;5072663;28;20451;-74
2022/05/09 14:17:02;;;;;;;58.73;3.67;;;;;;;;;;5072854;28;20487;-74
2022/05/09 14:19:31;;;;;;;59.03;3.77;;;;;;;;;;5072258;28;20463;-75
2022/05/09 14:22:04;;;;;;;59.60;3.60;;;;;;;;;;5071964;28;20448;-75
2022/05/09 14:24:33;;;;;;;58.60;3.00;;;;;;;;;;5059000;28;20460;-74
2022/05/09 14:29:51;;;;;;;58.50;3.10;;;;;;;;;;5052577;28;20439;-74
2022/05/09 14:32:33;;;;;;;59.40;3.40;;;;;;;;;;5052604;28;20476;-73
2022/05/09 14:35:00;;;;;;;59.20;3.20;;;;;;;;;;5052302;28;20531;-74
2022/05/09 14:37:30;;;;;;;58.97;3.20;;;;;;;;;;5051574;28;20484;-74
2022/05/09 14:40:00;;;;;;;59.80;3.63;;;;;;;;;;5052224;28;20597;-74
2022/05/09 14:42:31;;;;;;;58.40;3.10;;;;;;;;;;5052359;28;20450;-74
2022/05/09 14:45:13;;;;;;;59.17;3.60;;;;;;;;;;5052071;28;20455;-74
2022/05/09 14:47:41;;;;;;;57.97;2.80;;;;;;;;;;5051677;28;20440;-74
2022/05/09 14:50:13;;;;;;;58.30;2.73;;;;;;;;;;5052049;28;20484;-75
2022/05/09 14:52:42;;;;;;;58.60;3.00;;;;;;;;;;5052249;28;20452;-74
2022/05/09 14:58:01;;;;;;;59.33;3.40;;;;;;;;;;5071313;28;20524;-75
2022/05/09 15:00:29;;;;;;;60.57;3.47;;;;;;;;;;5071773;28;20468;-75
2022/05/09 15:02:58;;;;;;;58.90;3.10;;;;;;;;;;5072156;28;20932;-76
2022/05/09 15:05:25;;;;;;;59.53;3.20;;;;;;;;;;5072228;28;20483;-75
2022/05/09 15:07:54;;;;;;;58.30;2.70;;;;;;;;;;5071232;28;20447;-74
2022/05/09 15:10:23;;;;;;;59.70;3.03;;;;;;;;;;5071872;28;20471;-75